Time;durP1;ratioP1;P1;durP2;ratioP2;P2;SDS_P1;SDS_P2;PMS_P1;PMS_P2;Temp;Humidity;BMP_temperature;BMP_pressure;BME280_temperature;BME280_humidity;BME280_pressure;Samples;Min_cycle;Max_cycle;Signal;HPM_P1;HPM_P2
2023/01/08 00:04:25;;;;;;;15.52;10.38;;;;;;;;;;10450357;28;20132;-81
2023/01/08 00:09:25;;;;;;;14.75;9.80;;;;;;;;;;10441652;28;20081;-79
2023/01/08 00:14:25;;;;;;;15.75;11.30;;;;;;;;;;10444905;28;20127;-78
2023/01/08 00:19:27;;;;;;;18.08;11.38;;;;;;;;;;10433264;28;20050;-78
2023/01/08 00:24:28;;;;;;;17.27;11.00;;;;;;;;;;10448703;28;20484;-81
2023/01/08 00:29:29;;;;;;;17.20;11.25;;;;;;;;;;10439734;28;20099;-83
2023/01/08 00:34:30;;;;;;;18.60;12.23;;;;;;;;;;10474761;28;20039;-81
2023/01/08 00:39:30;;;;;;;17.13;11.50;;;;;;;;;;10433810;28;20052;-80
2023/01/08 00:44:31;;;;;;;17.70;11.73;;;;;;;;;;10432679;28;20053;-81
2023/01/08 00:49:34;;;;;;;16.10;11.02;;;;;;;;;;10435467;28;20130;-81
2023/01/08 00:54:45;;;;;;;20.45;12.35;;;;;;;;;;10436556;28;20041;-80
2023/01/08 00:59:47;;;;;;;20.75;12.18;;;;;;;;;;10433080;28;20061;-79
2023/01/08 01:04:51;;;;;;;19.50;11.80;;;;;;;;;;10427422;28;20045;-77
2023/01/08 01:09:52;;;;;;;20.98;12.52;;;;;;;;;;10427773;28;20098;-79
2023/01/08 01:14:54;;;;;;;23.00;12.88;;;;;;;;;;10415448;28;20105;-79
2023/01/08 01:19:54;;;;;;;23.55;13.25;;;;;;;;;;10439449;28;20048;-79
2023/01/08 01:24:56;;;;;;;20.88;13.10;;;;;;;;;;10449838;28;20041;-79
2023/01/08 01:29:57;;;;;;;22.27;13.00;;;;;;;;;;10419711;28;20061;-79
2023/01/08 01:34:57;;;;;;;21.30;12.13;;;;;;;;;;10434451;28;20504;-78
2023/01/08 01:39:59;;;;;;;21.10;12.87;;;;;;;;;;10431449;28;20068;-80
2023/01/08 01:45:00;;;;;;;21.33;12.48;;;;;;;;;;10409747;28;20798;-78
2023/01/08 01:50:00;;;;;;;23.98;13.68;;;;;;;;;;10423220;28;20064;-80
2023/01/08 01:55:02;;;;;;;22.30;13.27;;;;;;;;;;10428329;28;20072;-80
2023/01/08 02:00:04;;;;;;;25.88;14.57;;;;;;;;;;10424194;28;20479;-80
2023/01/08 02:05:12;;;;;;;24.25;13.00;;;;;;;;;;10415029;28;20041;-81
2023/01/08 02:10:12;;;;;;;27.00;13.20;;;;;;;;;;10414756;28;20512;-80
2023/01/08 02:15:21;;;;;;;22.07;12.03;;;;;;;;;;10422799;28;20630;-81
2023/01/08 02:20:35;;;;;;;20.98;12.05;;;;;;;;;;10402899;28;20307;-79
2023/01/08 02:25:36;;;;;;;;;;;;;;;;;;10414536;28;20547;-81
2023/01/08 02:30:38;;;;;;;21.92;12.38;;;;;;;;;;10405689;28;19929;-81
2023/01/08 02:35:44;;;;;;;18.73;11.27;;;;;;;;;;10425452;28;20111;-82
2023/01/08 02:40:53;;;;;;;20.80;11.60;;;;;;;;;;10433629;28;20044;-82
2023/01/08 02:45:55;;;;;;;22.48;12.48;;;;;;;;;;10444226;28;20076;-79
2023/01/08 02:51:03;;;;;;;22.38;12.30;;;;;;;;;;10466308;28;20048;-83
2023/01/08 02:56:06;;;;;;;22.92;12.85;;;;;;;;;;10484760;28;20147;-80
2023/01/08 03:01:10;;;;;;;22.65;13.70;;;;;;;;;;10414491;28;20123;-81
2023/01/08 03:06:12;;;;;;;27.23;15.82;;;;;;;;;;10426571;28;20484;-79
2023/01/08 03:11:14;;;;;;;24.60;13.05;;;;;;;;;;10435325;28;20084;-80
2023/01/08 03:16:22;;;;;;;23.20;12.43;;;;;;;;;;10432905;28;20512;-80
2023/01/08 03:21:24;;;;;;;22.60;12.18;;;;;;;;;;10443895;28;20045;-82
2023/01/08 03:26:25;;;;;;;22.23;11.73;;;;;;;;;;10430636;28;20056;-80
2023/01/08 03:31:26;;;;;;;19.90;11.50;;;;;;;;;;10431777;28;20041;-80
2023/01/08 03:36:29;;;;;;;19.23;11.27;;;;;;;;;;10430681;28;20068;-81
2023/01/08 03:41:34;;;;;;;21.30;12.33;;;;;;;;;;10429120;28;20094;-81
2023/01/08 03:46:38;;;;;;;18.40;10.82;;;;;;;;;;10438837;28;20083;-80
2023/01/08 03:51:43;;;;;;;19.02;11.10;;;;;;;;;;10431047;28;20067;-81
2023/01/08 03:56:43;;;;;;;21.73;12.57;;;;;;;;;;10426728;28;20408;-80
2023/01/08 04:01:44;;;;;;;20.20;11.98;;;;;;;;;;10402748;28;20056;-80
2023/01/08 04:06:45;;;;;;;23.50;12.60;;;;;;;;;;10441906;28;20132;-83
2023/01/08 04:11:47;;;;;;;19.40;11.60;;;;;;;;;;10413450;28;20053;-81
2023/01/08 04:16:47;;;;;;;20.33;10.88;;;;;;;;;;10414639;28;20060;-80
2023/01/08 04:21:51;;;;;;;23.17;12.07;;;;;;;;;;10427755;28;20068;-82
2023/01/08 04:26:53;;;;;;;23.05;13.18;;;;;;;;;;10427399;28;20083;-79
2023/01/08 04:31:54;;;;;;;19.90;11.68;;;;;;;;;;10417041;28;20574;-81
2023/01/08 04:36:55;;;;;;;21.60;12.20;;;;;;;;;;10424198;28;20063;-79
2023/01/08 04:41:55;;;;;;;18.83;11.30;;;;;;;;;;10474821;28;20052;-81
2023/01/08 04:46:56;;;;;;;19.55;11.43;;;;;;;;;;10465830;28;20142;-78
2023/01/08 04:51:58;;;;;;;21.73;12.85;;;;;;;;;;10464536;28;20686;-80
2023/01/08 04:56:58;;;;;;;23.60;12.82;;;;;;;;;;10470940;28;20691;-82
2023/01/08 05:02:00;;;;;;;19.33;11.02;;;;;;;;;;10528439;28;20033;-83
2023/01/08 05:07:02;;;;;;;20.23;11.43;;;;;;;;;;10496414;28;20140;-82
2023/01/08 05:12:05;;;;;;;20.70;11.50;;;;;;;;;;10469939;28;20556;-80
2023/01/08 05:17:05;;;;;;;21.13;12.27;;;;;;;;;;10475075;28;20424;-79
2023/01/08 05:22:08;;;;;;;19.98;12.70;;;;;;;;;;10451092;28;20044;-82
2023/01/08 05:27:09;;;;;;;21.23;12.77;;;;;;;;;;10460206;28;20469;-81
2023/01/08 05:32:13;;;;;;;19.60;11.65;;;;;;;;;;10458846;28;20151;-80
2023/01/08 05:37:15;;;;;;;19.17;11.70;;;;;;;;;;10485923;28;20055;-80
2023/01/08 05:42:15;;;;;;;18.77;11.40;;;;;;;;;;10474206;28;20040;-81
2023/01/08 05:47:17;;;;;;;16.70;11.10;;;;;;;;;;10471312;28;20511;-81
2023/01/08 05:52:17;;;;;;;18.48;11.85;;;;;;;;;;10464581;28;20103;-81
2023/01/08 05:57:23;;;;;;;19.48;11.57;;;;;;;;;;10463851;28;20045;-81
2023/01/08 06:02:25;;;;;;;18.33;11.82;;;;;;;;;;10469790;28;20048;-81
2023/01/08 06:07:32;;;;;;;21.83;13.32;;;;;;;;;;10491896;28;20043;-83
2023/01/08 06:12:32;;;;;;;22.30;12.80;;;;;;;;;;10507127;28;20033;-78
2023/01/08 06:17:34;;;;;;;21.77;13.13;;;;;;;;;;10490580;28;20047;-80
2023/01/08 06:22:37;;;;;;;19.20;12.30;;;;;;;;;;10464208;28;20283;-80
2023/01/08 06:27:38;;;;;;;18.48;12.07;;;;;;;;;;10466602;28;20049;-81
2023/01/08 06:32:39;;;;;;;16.73;11.50;;;;;;;;;;10470187;28;20098;-80
2023/01/08 06:37:40;;;;;;;19.15;11.82;;;;;;;;;;10465061;28;20084;-80
2023/01/08 06:42:42;;;;;;;17.80;11.73;;;;;;;;;;10465664;28;20040;-80
2023/01/08 06:47:42;;;;;;;16.38;11.52;;;;;;;;;;10462417;28;20053;-79
2023/01/08 06:52:42;;;;;;;17.65;12.55;;;;;;;;;;10459461;28;20048;-79
2023/01/08 06:57:43;;;;;;;18.75;11.93;;;;;;;;;;10469484;28;20049;-78
2023/01/08 07:02:43;;;;;;;15.70;11.80;;;;;;;;;;10467187;28;20049;-80
2023/01/08 07:07:44;;;;;;;17.40;11.90;;;;;;;;;;10483474;28;20048;-81
2023/01/08 07:12:45;;;;;;;17.73;12.52;;;;;;;;;;10496553;28;20044;-79
2023/01/08 07:17:46;;;;;;;18.27;12.27;;;;;;;;;;10503817;28;20100;-79
2023/01/08 07:22:46;;;;;;;16.95;11.65;;;;;;;;;;10510697;28;20036;-79
2023/01/08 07:27:48;;;;;;;17.23;11.90;;;;;;;;;;10488946;28;20064;-78
2023/01/08 07:32:48;;;;;;;18.73;11.65;;;;;;;;;;10472645;28;20055;-80
2023/01/08 07:37:49;;;;;;;16.58;11.20;;;;;;;;;;10469584;28;20053;-78
2023/01/08 07:42:59;;;;;;;18.67;12.10;;;;;;;;;;10487232;28;20119;-77
2023/01/08 07:47:59;;;;;;;16.42;11.88;;;;;;;;;;10519857;28;20092;-82
2023/01/08 07:53:00;;;;;;;17.05;11.70;;;;;;;;;;10534329;28;20025;-82
2023/01/08 08:08:29;;;;;;;19.13;12.38;;;;;;;;;;10457913;28;20026;-79
2023/01/08 08:13:30;;;;;;;19.13;12.82;;;;;;;;;;10372253;28;20045;-83
2023/01/08 08:18:30;;;;;;;17.38;12.00;;;;;;;;;;10392043;28;20393;-80
2023/01/08 08:23:31;;;;;;;16.45;11.30;;;;;;;;;;10402459;28;20037;-84
2023/01/08 08:28:31;;;;;;;16.55;12.00;;;;;;;;;;10383712;28;20508;-80
2023/01/08 08:33:32;;;;;;;17.13;12.60;;;;;;;;;;10412789;28;20394;-80
2023/01/08 08:38:36;;;;;;;18.08;12.20;;;;;;;;;;10409567;28;20034;-79
2023/01/08 08:43:45;;;;;;;16.08;11.55;;;;;;;;;;10438129;28;20049;-79
2023/01/08 08:54:27;;;;;;;17.02;11.43;;;;;;;;;;10467131;28;20033;-78
2023/01/08 08:59:51;;;;;;;15.52;11.23;;;;;;;;;;10451353;28;20049;-82
2023/01/08 09:05:35;;;;;;;15.23;10.65;;;;;;;;;;10478896;28;20028;-83
2023/01/08 09:15:54;;;;;;;15.75;11.32;;;;;;;;;;10571640;28;20036;-81
2023/01/08 09:21:21;;;;;;;16.45;10.35;;;;;;;;;;10517646;28;20056;-81
2023/01/08 09:26:22;;;;;;;14.30;9.52;;;;;;;;;;10483146;28;20767;-82
2023/01/08 09:31:58;;;;;;;13.95;9.40;;;;;;;;;;10493981;28;20021;-83
2023/01/08 09:37:36;;;;;;;13.60;9.32;;;;;;;;;;10544583;28;20055;-81
2023/01/08 09:43:16;;;;;;;10.60;8.55;;;;;;;;;;10523872;28;20348;-78
2023/01/08 09:48:27;;;;;;;12.90;8.63;;;;;;;;;;10491111;28;20045;-77
2023/01/08 09:53:31;;;;;;;11.15;7.90;;;;;;;;;;10484639;28;20400;-79
2023/01/08 09:58:39;;;;;;;11.10;8.30;;;;;;;;;;10448606;28;20057;-79
2023/01/08 10:03:47;;;;;;;10.40;8.23;;;;;;;;;;10463505;28;20567;-77
2023/01/08 10:08:49;;;;;;;11.23;8.23;;;;;;;;;;10463154;28;20468;-78
2023/01/08 10:13:52;;;;;;;9.03;7.73;;;;;;;;;;10469892;28;20079;-76
2023/01/08 10:18:52;;;;;;;10.27;8.05;;;;;;;;;;10456142;28;20048;-78
2023/01/08 10:23:53;;;;;;;11.40;8.25;;;;;;;;;;10464089;28;20391;-79
2023/01/08 10:29:13;;;;;;;9.88;8.52;;;;;;;;;;10459032;28;20060;-80
2023/01/08 10:34:23;;;;;;;13.73;9.02;;;;;;;;;;10469398;28;20103;-81
2023/01/08 10:39:26;;;;;;;12.25;9.02;;;;;;;;;;10466078;28;20079;-79
2023/01/08 10:44:27;;;;;;;11.23;9.13;;;;;;;;;;10475882;28;20076;-79
2023/01/08 10:49:32;;;;;;;12.95;9.88;;;;;;;;;;10470178;28;20714;-77
2023/01/08 10:54:34;;;;;;;16.10;11.38;;;;;;;;;;10458409;28;20163;-78
2023/01/08 10:59:34;;;;;;;15.38;10.65;;;;;;;;;;10470986;28;20053;-77
2023/01/08 11:04:35;;;;;;;16.25;11.13;;;;;;;;;;10468874;28;20040;-77
2023/01/08 11:09:39;;;;;;;15.43;10.95;;;;;;;;;;10477166;28;20055;-77
2023/01/08 11:14:40;;;;;;;18.95;11.05;;;;;;;;;;10459631;28;20518;-77
2023/01/08 11:19:40;;;;;;;14.57;11.27;;;;;;;;;;10457025;28;20037;-79
2023/01/08 11:24:41;;;;;;;15.85;10.80;;;;;;;;;;10477538;28;20040;-81
2023/01/08 11:29:44;;;;;;;18.88;11.88;;;;;;;;;;10451635;28;20108;-80
2023/01/08 11:35:03;;;;;;;15.55;11.38;;;;;;;;;;10471060;28;20043;-80
2023/01/08 11:40:12;;;;;;;17.92;12.10;;;;;;;;;;10512301;28;20758;-78
2023/01/08 11:45:22;;;;;;;17.83;12.20;;;;;;;;;;10512616;28;20044;-75
2023/01/08 11:50:41;;;;;;;19.77;12.30;;;;;;;;;;10507145;28;20073;-75
2023/01/08 11:55:48;;;;;;;15.15;11.65;;;;;;;;;;10511557;28;20047;-78
2023/01/08 12:01:18;;;;;;;18.20;12.35;;;;;;;;;;10511650;28;20130;-77
2023/01/08 12:06:21;;;;;;;21.15;12.93;;;;;;;;;;10487204;28;20076;-80
2023/01/08 12:11:26;;;;;;;18.80;12.82;;;;;;;;;;10518131;28;20055;-78
2023/01/08 12:16:26;;;;;;;;;;;;;;;;;;10509985;28;20111;-78
2023/01/08 12:21:31;;;;;;;19.63;12.37;;;;;;;;;;10477342;28;19916;-84
2023/01/08 12:26:32;;;;;;;17.33;12.63;;;;;;;;;;10494400;28;20037;-83
2023/01/08 12:31:50;;;;;;;20.17;13.00;;;;;;;;;;10506906;28;20051;-73
2023/01/08 12:36:52;;;;;;;17.60;12.45;;;;;;;;;;10523644;28;20128;-82
2023/01/08 12:41:55;;;;;;;18.75;13.10;;;;;;;;;;10489524;28;20122;-81
2023/01/08 12:46:57;;;;;;;19.08;11.57;;;;;;;;;;10460769;28;20582;-82
2023/01/08 12:52:01;;;;;;;18.07;12.80;;;;;;;;;;10479308;28;20121;-83
2023/01/08 12:57:01;;;;;;;;;;;;;;;;;;10482909;28;20056;-84
2023/01/08 13:02:03;;;;;;;17.58;11.55;;;;;;;;;;10467024;28;19931;-81
2023/01/08 13:07:04;;;;;;;15.80;10.68;;;;;;;;;;10484369;28;20063;-84
2023/01/08 13:12:05;;;;;;;17.42;12.00;;;;;;;;;;10485646;28;20053;-81
2023/01/08 13:17:16;;;;;;;15.40;11.10;;;;;;;;;;10504422;28;20044;-80
2023/01/08 13:22:23;;;;;;;16.90;10.98;;;;;;;;;;10524889;28;20155;-80
2023/01/08 13:27:28;;;;;;;16.45;10.13;;;;;;;;;;10526733;28;20103;-83
2023/01/08 13:32:28;;;;;;;15.60;10.63;;;;;;;;;;10478842;28;20094;-80
2023/01/08 13:37:28;;;;;;;15.07;10.93;;;;;;;;;;10458622;28;20127;-81
2023/01/08 13:42:35;;;;;;;15.25;10.45;;;;;;;;;;10496252;28;20464;-85
2023/01/08 13:47:41;;;;;;;16.35;10.88;;;;;;;;;;10459343;28;20048;-81
2023/01/08 13:52:44;;;;;;;15.82;10.30;;;;;;;;;;10511410;28;20032;-79
2023/01/08 13:57:50;;;;;;;15.55;10.10;;;;;;;;;;10520912;28;20063;-81
2023/01/08 14:02:50;;;;;;;15.10;11.27;;;;;;;;;;10503015;28;20051;-85
2023/01/08 14:07:51;;;;;;;16.15;10.90;;;;;;;;;;10534938;28;20052;-82
2023/01/08 14:12:52;;;;;;;14.68;10.40;;;;;;;;;;10536896;28;20043;-81
2023/01/08 14:17:53;;;;;;;14.27;9.95;;;;;;;;;;10536245;28;20048;-80
2023/01/08 14:22:58;;;;;;;14.57;9.90;;;;;;;;;;10564530;28;20032;-80
2023/01/08 14:28:01;;;;;;;13.18;9.13;;;;;;;;;;10545909;28;20052;-83
2023/01/08 14:33:02;;;;;;;12.05;9.60;;;;;;;;;;10507637;28;20055;-81
2023/01/08 14:38:04;;;;;;;14.20;9.45;;;;;;;;;;10497280;28;20044;-77
2023/01/08 14:43:12;;;;;;;12.75;9.55;;;;;;;;;;10502529;28;20048;-81
2023/01/08 14:48:29;;;;;;;13.80;8.55;;;;;;;;;;10526945;28;20064;-82
2023/01/08 14:53:35;;;;;;;11.82;8.60;;;;;;;;;;10539310;28;20049;-81
2023/01/08 14:58:40;;;;;;;12.70;8.93;;;;;;;;;;10526549;28;20134;-79
2023/01/08 15:03:43;;;;;;;12.52;9.15;;;;;;;;;;10491662;28;20057;-80
2023/01/08 15:08:46;;;;;;;13.63;9.10;;;;;;;;;;10500088;28;20040;-81
2023/01/08 15:13:48;;;;;;;13.15;8.82;;;;;;;;;;10476473;28;20085;-80
2023/01/08 15:19:10;;;;;;;12.77;9.50;;;;;;;;;;10485227;28;20053;-80
2023/01/08 15:24:23;;;;;;;13.90;9.80;;;;;;;;;;10483977;28;20044;-83
2023/01/08 15:34:28;;;;;;;12.40;9.05;;;;;;;;;;10505056;28;20049;-82
2023/01/08 15:39:30;;;;;;;12.77;9.30;;;;;;;;;;10497549;28;20039;-79
2023/01/08 15:44:41;;;;;;;13.77;9.73;;;;;;;;;;10534824;28;20024;-78
2023/01/08 15:49:43;;;;;;;14.25;9.93;;;;;;;;;;10554469;28;20037;-81
2023/01/08 15:54:45;;;;;;;13.15;9.23;;;;;;;;;;10510666;28;20045;-81
2023/01/08 15:59:49;;;;;;;12.40;9.05;;;;;;;;;;10517457;28;20063;-81
2023/01/08 16:04:57;;;;;;;12.82;9.15;;;;;;;;;;10528691;28;20048;-82
2023/01/08 16:09:59;;;;;;;12.57;8.95;;;;;;;;;;10529725;28;20138;-80
2023/01/08 16:15:06;;;;;;;12.57;9.35;;;;;;;;;;10523196;28;20127;-83
2023/01/08 16:20:15;;;;;;;13.90;9.70;;;;;;;;;;10508275;28;20051;-82
2023/01/08 16:25:16;;;;;;;13.52;9.50;;;;;;;;;;10536778;28;20099;-79
2023/01/08 16:30:16;;;;;;;13.55;9.70;;;;;;;;;;10558955;28;20058;-80
2023/01/08 16:35:20;;;;;;;11.65;9.30;;;;;;;;;;10537930;28;20186;-79
2023/01/08 16:40:21;;;;;;;11.52;8.20;;;;;;;;;;10565657;28;20032;-78
2023/01/08 16:45:22;;;;;;;9.32;7.72;;;;;;;;;;10570538;28;20040;-80
2023/01/08 16:50:23;;;;;;;11.48;8.35;;;;;;;;;;10564982;28;20028;-80
2023/01/08 16:55:28;;;;;;;11.10;8.20;;;;;;;;;;10577349;28;20036;-78
2023/01/08 17:00:30;;;;;;;11.20;8.47;;;;;;;;;;10568770;28;20090;-81
2023/01/08 17:05:35;;;;;;;13.30;8.80;;;;;;;;;;10553968;28;20298;-81
2023/01/08 17:10:39;;;;;;;11.75;8.32;;;;;;;;;;10555710;28;20032;-80
2023/01/08 17:15:45;;;;;;;11.63;8.07;;;;;;;;;;10559052;28;20356;-80
2023/01/08 17:20:53;;;;;;;10.02;7.40;;;;;;;;;;10550080;28;20830;-83
2023/01/08 17:25:56;;;;;;;9.15;7.70;;;;;;;;;;10566013;28;20032;-81
2023/01/08 17:31:04;;;;;;;11.38;7.88;;;;;;;;;;10534311;28;20051;-80
2023/01/08 17:36:13;;;;;;;11.60;8.93;;;;;;;;;;10503532;28;20048;-79
2023/01/08 17:42:23;;;;;;;10.35;7.43;;;;;;;;;;10517830;28;20081;-78
2023/01/08 17:46:35;;;;;;;12.02;8.90;;;;;;;;;;10515937;28;20098;-79
2023/01/08 17:51:39;;;;;;;14.02;9.20;;;;;;;;;;10510355;28;20123;-80
2023/01/08 17:56:42;;;;;;;13.93;9.57;;;;;;;;;;10506215;28;20128;-81
2023/01/08 18:01:43;;;;;;;9.23;7.75;;;;;;;;;;10496944;28;20037;-81
2023/01/08 18:06:45;;;;;;;11.88;8.57;;;;;;;;;;10526568;28;20055;-80
2023/01/08 18:11:47;;;;;;;12.80;9.40;;;;;;;;;;10506698;28;20340;-80
2023/01/08 18:16:49;;;;;;;11.98;9.07;;;;;;;;;;10500691;28;20040;-82
2023/01/08 18:21:51;;;;;;;13.50;10.23;;;;;;;;;;10545819;28;20043;-79
2023/01/08 18:26:52;;;;;;;12.27;8.68;;;;;;;;;;10578735;28;20050;-79
2023/01/08 18:31:55;;;;;;;15.15;10.50;;;;;;;;;;10583934;28;20048;-81
2023/01/08 18:37:04;;;;;;;15.65;11.48;;;;;;;;;;10549355;28;20052;-80
2023/01/08 18:42:27;;;;;;;14.15;10.18;;;;;;;;;;10549058;28;20031;-79
2023/01/08 18:47:29;;;;;;;16.17;11.18;;;;;;;;;;10503035;28;20048;-81
2023/01/08 18:52:31;;;;;;;14.15;10.65;;;;;;;;;;10525732;28;20028;-82
2023/01/08 18:57:35;;;;;;;16.55;12.52;;;;;;;;;;10525895;28;20039;-81
2023/01/08 19:02:38;;;;;;;16.52;12.30;;;;;;;;;;10571023;28;20089;-84
2023/01/08 19:07:41;;;;;;;16.27;11.50;;;;;;;;;;10545937;28;20403;-82
2023/01/08 19:12:44;;;;;;;16.98;12.07;;;;;;;;;;10527539;28;20874;-82
2023/01/08 19:17:44;;;;;;;15.82;11.85;;;;;;;;;;10481344;28;20055;-83
2023/01/08 19:22:45;;;;;;;13.32;10.50;;;;;;;;;;10492225;28;20484;-81
2023/01/08 19:27:47;;;;;;;13.37;10.00;;;;;;;;;;10514310;28;20075;-80
2023/01/08 19:32:49;;;;;;;11.98;9.40;;;;;;;;;;10507877;28;20075;-81
2023/01/08 19:37:50;;;;;;;12.48;9.27;;;;;;;;;;10500958;28;20482;-83
2023/01/08 19:48:10;;;;;;;12.77;9.48;;;;;;;;;;10523770;28;20333;-80
2023/01/08 19:53:11;;;;;;;15.95;10.73;;;;;;;;;;10499767;28;20075;-81
2023/01/08 19:58:11;;;;;;;12.48;9.50;;;;;;;;;;10526450;28;20134;-82
2023/01/08 20:03:15;;;;;;;14.20;9.88;;;;;;;;;;10517295;28;20040;-81
2023/01/08 20:08:16;;;;;;;;;;;;;;;;;;10504854;28;20519;-81
2023/01/08 20:13:18;;;;;;;12.60;9.23;;;;;;;;;;10517118;28;19956;-80
2023/01/08 20:18:20;;;;;;;11.60;9.18;;;;;;;;;;10518029;28;20044;-81
2023/01/08 20:23:22;;;;;;;13.85;9.77;;;;;;;;;;10474579;28;20068;-81
2023/01/08 20:28:33;;;;;;;11.65;9.30;;;;;;;;;;10455792;28;20053;-81
2023/01/08 20:33:41;;;;;;;12.93;10.40;;;;;;;;;;10492315;28;20035;-82
2023/01/08 20:39:22;;;;;;;14.02;10.43;;;;;;;;;;10467589;28;20041;-80
2023/01/08 20:44:26;;;;;;;14.68;10.25;;;;;;;;;;10435910;28;20053;-81
2023/01/08 20:49:28;;;;;;;14.15;9.85;;;;;;;;;;10412097;28;20124;-80
2023/01/08 20:54:45;;;;;;;14.52;10.20;;;;;;;;;;10421033;28;20045;-77
2023/01/08 20:59:46;;;;;;;11.18;9.48;;;;;;;;;;10428211;28;20033;-79
2023/01/08 21:04:47;;;;;;;12.68;9.48;;;;;;;;;;10393493;28;20409;-78
2023/01/08 21:09:47;;;;;;;12.68;9.38;;;;;;;;;;10404627;28;20053;-77
2023/01/08 21:14:49;;;;;;;14.15;10.27;;;;;;;;;;10429750;28;20045;-77
2023/01/08 21:19:50;;;;;;;11.23;9.45;;;;;;;;;;10425202;28;20045;-78
2023/01/08 21:24:52;;;;;;;16.00;11.48;;;;;;;;;;10415725;28;20038;-78
2023/01/08 21:29:54;;;;;;;;;;;;;;;;;;10421198;28;20131;-77
2023/01/08 21:34:56;;;;;;;13.95;10.23;;;;;;;;;;10421755;28;19921;-76
2023/01/08 21:39:56;;;;;;;13.32;10.48;;;;;;;;;;10417492;28;20049;-78
2023/01/08 21:50:19;;;;;;;13.35;10.07;;;;;;;;;;10422914;28;20157;-79
2023/01/08 21:55:20;;;;;;;14.98;10.77;;;;;;;;;;10453747;28;20033;-77
2023/01/08 22:00:22;;;;;;;13.82;10.18;;;;;;;;;;10444542;28;20508;-76
2023/01/08 22:05:24;;;;;;;15.65;11.20;;;;;;;;;;10439500;28;20049;-79
2023/01/08 22:10:24;;;;;;;16.73;11.60;;;;;;;;;;10452665;28;20053;-78
2023/01/08 22:15:25;;;;;;;15.45;11.15;;;;;;;;;;10465611;28;20069;-78
2023/01/08 22:20:26;;;;;;;16.77;11.90;;;;;;;;;;10424454;28;20053;-81
2023/01/08 22:25:27;;;;;;;18.77;12.10;;;;;;;;;;10418273;28;20412;-79
2023/01/08 22:30:27;;;;;;;16.55;11.00;;;;;;;;;;10416521;28;20057;-77
2023/01/08 22:35:30;;;;;;;17.48;11.95;;;;;;;;;;10405917;28;20494;-77
2023/01/08 22:40:31;;;;;;;17.38;12.20;;;;;;;;;;10422687;28;20806;-77
2023/01/08 22:45:32;;;;;;;18.85;12.77;;;;;;;;;;10397363;28;20382;-77
2023/01/08 22:50:34;;;;;;;18.77;12.70;;;;;;;;;;10429925;28;20053;-79
2023/01/08 22:55:34;;;;;;;18.60;12.65;;;;;;;;;;10407301;28;20409;-76
2023/01/08 23:00:38;;;;;;;17.90;12.73;;;;;;;;;;10422038;28;20037;-77
2023/01/08 23:05:39;;;;;;;19.73;12.40;;;;;;;;;;10414750;28;20067;-77
2023/01/08 23:10:39;;;;;;;20.30;12.43;;;;;;;;;;10431002;28;20131;-75
2023/01/08 23:15:40;;;;;;;18.10;12.43;;;;;;;;;;10419184;28;20282;-75
2023/01/08 23:20:40;;;;;;;18.55;12.05;;;;;;;;;;10382048;28;20300;-76
2023/01/08 23:25:41;;;;;;;22.00;13.10;;;;;;;;;;10416970;28;20044;-78
2023/01/08 23:30:43;;;;;;;18.45;13.02;;;;;;;;;;10426795;28;20053;-79
2023/01/08 23:35:43;;;;;;;22.77;13.27;;;;;;;;;;10429230;28;20449;-77
2023/01/08 23:40:44;;;;;;;22.02;14.50;;;;;;;;;;10428212;28;20113;-78
2023/01/08 23:45:44;;;;;;;23.00;14.80;;;;;;;;;;10450543;28;20052;-78
2023/01/08 23:50:46;;;;;;;24.63;13.37;;;;;;;;;;10437120;28;20083;-78
2023/01/08 23:55:46;;;;;;;23.75;14.43;;;;;;;;;;10410349;28;20331;-77
